sensor_id;sensor_type;location;lat;lon;timestamp;P1;durP1;ratioP1;P2;durP2;ratioP2
41263;SDS011;26998;48.714;9.414;2024-03-07T00:02:11;60.17;;;37.50;;
41263;SDS011;26998;48.714;9.414;2024-03-07T00:04:38;52.97;;;33.10;;
41263;SDS011;26998;48.714;9.414;2024-03-07T00:07:05;61.40;;;37.28;;
41263;SDS011;26998;48.714;9.414;2024-03-07T00:09:35;58.78;;;36.55;;
41263;SDS011;26998;48.714;9.414;2024-03-07T00:12:02;60.17;;;36.10;;
41263;SDS011;26998;48.714;9.414;2024-03-07T00:14:30;64.65;;;37.92;;
41263;SDS011;26998;48.714;9.414;2024-03-07T00:17:01;60.30;;;36.83;;
41263;SDS011;26998;48.714;9.414;2024-03-07T00:19:29;55.70;;;34.97;;
41263;SDS011;26998;48.714;9.414;2024-03-07T00:21:56;52.58;;;35.85;;
41263;SDS011;26998;48.714;9.414;2024-03-07T00:24:23;52.72;;;35.10;;
41263;SDS011;26998;48.714;9.414;2024-03-07T00:26:50;55.15;;;35.75;;
41263;SDS011;26998;48.714;9.414;2024-03-07T00:29:18;55.45;;;36.95;;
41263;SDS011;26998;48.714;9.414;2024-03-07T00:31:46;55.60;;;37.20;;
41263;SDS011;26998;48.714;9.414;2024-03-07T00:34:13;58.63;;;37.78;;
41263;SDS011;26998;48.714;9.414;2024-03-07T00:36:50;53.40;;;36.88;;
41263;SDS011;26998;48.714;9.414;2024-03-07T00:39:18;56.67;;;37.22;;
41263;SDS011;26998;48.714;9.414;2024-03-07T00:41:46;52.78;;;35.92;;
41263;SDS011;26998;48.714;9.414;2024-03-07T00:44:13;54.33;;;37.80;;
41263;SDS011;26998;48.714;9.414;2024-03-07T00:46:40;54.47;;;38.17;;
41263;SDS011;26998;48.714;9.414;2024-03-07T00:49:07;55.70;;;38.65;;
41263;SDS011;26998;48.714;9.414;2024-03-07T00:51:33;54.28;;;38.97;;
41263;SDS011;26998;48.714;9.414;2024-03-07T00:54:00;57.63;;;40.78;;
41263;SDS011;26998;48.714;9.414;2024-03-07T00:56:27;59.50;;;40.15;;
41263;SDS011;26998;48.714;9.414;2024-03-07T00:58:55;56.72;;;40.38;;
41263;SDS011;26998;48.714;9.414;2024-03-07T01:01:23;58.17;;;41.83;;
41263;SDS011;26998;48.714;9.414;2024-03-07T01:03:50;58.00;;;39.93;;
41263;SDS011;26998;48.714;9.414;2024-03-07T01:06:18;57.43;;;40.37;;
41263;SDS011;26998;48.714;9.414;2024-03-07T01:08:46;51.65;;;37.63;;
41263;SDS011;26998;48.714;9.414;2024-03-07T01:11:12;60.78;;;41.75;;
41263;SDS011;26998;48.714;9.414;2024-03-07T01:13:40;61.00;;;42.80;;
41263;SDS011;26998;48.714;9.414;2024-03-07T01:16:07;60.05;;;41.58;;
41263;SDS011;26998;48.714;9.414;2024-03-07T01:18:34;61.20;;;41.60;;
41263;SDS011;26998;48.714;9.414;2024-03-07T01:21:01;64.35;;;43.70;;
41263;SDS011;26998;48.714;9.414;2024-03-07T01:23:28;62.28;;;41.30;;
41263;SDS011;26998;48.714;9.414;2024-03-07T01:25:58;60.72;;;42.30;;
41263;SDS011;26998;48.714;9.414;2024-03-07T01:28:33;60.37;;;40.73;;
41263;SDS011;26998;48.714;9.414;2024-03-07T01:30:59;60.80;;;41.42;;
41263;SDS011;26998;48.714;9.414;2024-03-07T01:33:26;60.45;;;41.40;;
41263;SDS011;26998;48.714;9.414;2024-03-07T01:35:53;60.20;;;41.70;;
41263;SDS011;26998;48.714;9.414;2024-03-07T01:38:20;58.50;;;41.72;;
41263;SDS011;26998;48.714;9.414;2024-03-07T01:40:46;58.65;;;41.25;;
41263;SDS011;26998;48.714;9.414;2024-03-07T01:43:13;61.00;;;42.47;;
41263;SDS011;26998;48.714;9.414;2024-03-07T01:45:39;58.88;;;41.35;;
41263;SDS011;26998;48.714;9.414;2024-03-07T01:48:08;60.63;;;42.78;;
41263;SDS011;26998;48.714;9.414;2024-03-07T01:50:36;63.63;;;44.10;;
41263;SDS011;26998;48.714;9.414;2024-03-07T01:53:12;62.05;;;42.80;;
41263;SDS011;26998;48.714;9.414;2024-03-07T01:55:40;57.17;;;40.85;;
41263;SDS011;26998;48.714;9.414;2024-03-07T01:58:08;60.95;;;42.85;;
41263;SDS011;26998;48.714;9.414;2024-03-07T02:00:40;60.72;;;42.75;;
41263;SDS011;26998;48.714;9.414;2024-03-07T02:03:07;58.58;;;41.40;;
41263;SDS011;26998;48.714;9.414;2024-03-07T02:05:34;60.00;;;43.17;;
41263;SDS011;26998;48.714;9.414;2024-03-07T02:08:00;65.15;;;44.45;;
41263;SDS011;26998;48.714;9.414;2024-03-07T02:10:28;65.10;;;45.10;;
41263;SDS011;26998;48.714;9.414;2024-03-07T02:12:54;68.22;;;46.75;;
41263;SDS011;26998;48.714;9.414;2024-03-07T02:15:21;67.07;;;45.80;;
41263;SDS011;26998;48.714;9.414;2024-03-07T02:17:47;67.43;;;46.50;;
41263;SDS011;26998;48.714;9.414;2024-03-07T02:20:14;68.88;;;47.15;;
41263;SDS011;26998;48.714;9.414;2024-03-07T02:22:42;69.30;;;45.83;;
41263;SDS011;26998;48.714;9.414;2024-03-07T02:25:08;67.55;;;46.15;;
41263;SDS011;26998;48.714;9.414;2024-03-07T02:27:38;59.05;;;43.95;;
41263;SDS011;26998;48.714;9.414;2024-03-07T02:30:05;63.63;;;44.58;;
41263;SDS011;26998;48.714;9.414;2024-03-07T02:32:34;66.95;;;45.17;;
41263;SDS011;26998;48.714;9.414;2024-03-07T02:35:04;66.00;;;46.10;;
41263;SDS011;26998;48.714;9.414;2024-03-07T02:37:31;63.92;;;44.60;;
41263;SDS011;26998;48.714;9.414;2024-03-07T02:39:58;68.53;;;46.13;;
41263;SDS011;26998;48.714;9.414;2024-03-07T02:42:24;65.32;;;45.22;;
41263;SDS011;26998;48.714;9.414;2024-03-07T02:44:51;70.03;;;46.53;;
41263;SDS011;26998;48.714;9.414;2024-03-07T02:47:19;65.80;;;44.63;;
41263;SDS011;26998;48.714;9.414;2024-03-07T02:49:46;75.30;;;49.90;;
41263;SDS011;26998;48.714;9.414;2024-03-07T02:52:12;70.13;;;47.60;;
41263;SDS011;26998;48.714;9.414;2024-03-07T02:54:39;70.68;;;47.35;;
41263;SDS011;26998;48.714;9.414;2024-03-07T02:57:06;70.30;;;46.67;;
41263;SDS011;26998;48.714;9.414;2024-03-07T02:59:33;74.30;;;45.90;;
41263;SDS011;26998;48.714;9.414;2024-03-07T03:02:00;68.85;;;45.90;;
41263;SDS011;26998;48.714;9.414;2024-03-07T03:04:27;69.97;;;46.37;;
41263;SDS011;26998;48.714;9.414;2024-03-07T03:06:54;67.13;;;45.75;;
41263;SDS011;26998;48.714;9.414;2024-03-07T03:09:20;74.55;;;46.65;;
41263;SDS011;26998;48.714;9.414;2024-03-07T03:11:48;72.32;;;49.13;;
41263;SDS011;26998;48.714;9.414;2024-03-07T03:14:21;70.80;;;47.70;;
41263;SDS011;26998;48.714;9.414;2024-03-07T03:16:48;73.03;;;48.70;;
41263;SDS011;26998;48.714;9.414;2024-03-07T03:19:15;75.28;;;50.83;;
41263;SDS011;26998;48.714;9.414;2024-03-07T03:21:41;79.05;;;51.33;;
41263;SDS011;26998;48.714;9.414;2024-03-07T03:24:09;76.57;;;50.88;;
41263;SDS011;26998;48.714;9.414;2024-03-07T03:26:36;76.40;;;48.20;;
41263;SDS011;26998;48.714;9.414;2024-03-07T03:29:04;77.05;;;49.25;;
41263;SDS011;26998;48.714;9.414;2024-03-07T03:31:32;74.23;;;48.93;;
41263;SDS011;26998;48.714;9.414;2024-03-07T03:34:01;73.15;;;47.50;;
41263;SDS011;26998;48.714;9.414;2024-03-07T03:36:28;71.65;;;46.53;;
41263;SDS011;26998;48.714;9.414;2024-03-07T03:38:55;75.23;;;48.23;;
41263;SDS011;26998;48.714;9.414;2024-03-07T03:41:23;75.03;;;48.63;;
41263;SDS011;26998;48.714;9.414;2024-03-07T03:43:53;74.07;;;47.72;;
41263;SDS011;26998;48.714;9.414;2024-03-07T03:46:19;73.05;;;46.30;;
41263;SDS011;26998;48.714;9.414;2024-03-07T03:48:46;73.75;;;46.75;;
41263;SDS011;26998;48.714;9.414;2024-03-07T03:51:12;72.93;;;46.37;;
41263;SDS011;26998;48.714;9.414;2024-03-07T03:53:39;66.80;;;44.72;;
41263;SDS011;26998;48.714;9.414;2024-03-07T03:56:09;76.20;;;47.65;;
41263;SDS011;26998;48.714;9.414;2024-03-07T03:58:39;75.07;;;46.80;;
41263;SDS011;26998;48.714;9.414;2024-03-07T04:01:09;72.72;;;46.50;;
41263;SDS011;26998;48.714;9.414;2024-03-07T04:03:39;75.43;;;48.65;;
41263;SDS011;26998;48.714;9.414;2024-03-07T04:06:06;77.63;;;48.13;;
41263;SDS011;26998;48.714;9.414;2024-03-07T04:08:33;81.03;;;49.95;;
41263;SDS011;26998;48.714;9.414;2024-03-07T04:11:04;80.78;;;49.40;;
41263;SDS011;26998;48.714;9.414;2024-03-07T04:13:31;75.90;;;49.05;;
41263;SDS011;26998;48.714;9.414;2024-03-07T04:16:04;80.27;;;50.87;;
41263;SDS011;26998;48.714;9.414;2024-03-07T04:18:31;80.55;;;51.03;;
41263;SDS011;26998;48.714;9.414;2024-03-07T04:20:58;78.65;;;49.80;;
41263;SDS011;26998;48.714;9.414;2024-03-07T04:23:28;80.50;;;50.70;;
41263;SDS011;26998;48.714;9.414;2024-03-07T04:25:54;80.25;;;50.03;;
41263;SDS011;26998;48.714;9.414;2024-03-07T04:28:22;79.32;;;50.38;;
41263;SDS011;26998;48.714;9.414;2024-03-07T04:30:49;81.68;;;50.45;;
41263;SDS011;26998;48.714;9.414;2024-03-07T04:33:15;78.38;;;50.40;;
41263;SDS011;26998;48.714;9.414;2024-03-07T04:35:43;70.47;;;45.95;;
41263;SDS011;26998;48.714;9.414;2024-03-07T04:38:10;70.13;;;46.05;;
41263;SDS011;26998;48.714;9.414;2024-03-07T04:40:41;70.90;;;47.08;;
41263;SDS011;26998;48.714;9.414;2024-03-07T04:43:08;68.10;;;44.95;;
41263;SDS011;26998;48.714;9.414;2024-03-07T04:45:35;77.15;;;49.70;;
41263;SDS011;26998;48.714;9.414;2024-03-07T04:48:01;74.55;;;48.20;;
41263;SDS011;26998;48.714;9.414;2024-03-07T04:50:28;74.55;;;47.08;;
41263;SDS011;26998;48.714;9.414;2024-03-07T04:52:58;72.88;;;47.33;;
41263;SDS011;26998;48.714;9.414;2024-03-07T04:55:25;73.07;;;47.05;;
41263;SDS011;26998;48.714;9.414;2024-03-07T04:57:51;71.90;;;46.22;;
41263;SDS011;26998;48.714;9.414;2024-03-07T05:00:18;72.57;;;48.07;;
41263;SDS011;26998;48.714;9.414;2024-03-07T05:02:47;71.93;;;46.25;;
41263;SDS011;26998;48.714;9.414;2024-03-07T05:05:17;71.85;;;45.85;;
41263;SDS011;26998;48.714;9.414;2024-03-07T05:07:54;68.28;;;44.60;;
41263;SDS011;26998;48.714;9.414;2024-03-07T05:10:22;69.57;;;45.13;;
41263;SDS011;26998;48.714;9.414;2024-03-07T05:12:48;62.83;;;42.37;;
41263;SDS011;26998;48.714;9.414;2024-03-07T05:15:15;66.90;;;44.13;;
41263;SDS011;26998;48.714;9.414;2024-03-07T05:17:43;67.90;;;45.63;;
41263;SDS011;26998;48.714;9.414;2024-03-07T05:20:10;71.45;;;44.67;;
41263;SDS011;26998;48.714;9.414;2024-03-07T05:22:39;72.47;;;46.22;;
41263;SDS011;26998;48.714;9.414;2024-03-07T05:25:18;70.35;;;45.60;;
41263;SDS011;26998;48.714;9.414;2024-03-07T05:27:46;67.82;;;43.63;;
41263;SDS011;26998;48.714;9.414;2024-03-07T05:30:13;69.18;;;45.50;;
41263;SDS011;26998;48.714;9.414;2024-03-07T05:32:42;70.07;;;45.28;;
41263;SDS011;26998;48.714;9.414;2024-03-07T05:35:09;73.65;;;44.72;;
41263;SDS011;26998;48.714;9.414;2024-03-07T05:37:38;74.18;;;46.25;;
41263;SDS011;26998;48.714;9.414;2024-03-07T05:40:08;67.00;;;44.55;;
41263;SDS011;26998;48.714;9.414;2024-03-07T05:42:35;70.60;;;45.42;;
41263;SDS011;26998;48.714;9.414;2024-03-07T05:45:01;70.47;;;44.20;;
41263;SDS011;26998;48.714;9.414;2024-03-07T05:47:29;69.93;;;43.63;;
41263;SDS011;26998;48.714;9.414;2024-03-07T05:49:57;62.70;;;41.70;;
41263;SDS011;26998;48.714;9.414;2024-03-07T05:52:23;67.10;;;43.92;;
41263;SDS011;26998;48.714;9.414;2024-03-07T05:54:50;66.40;;;43.88;;
41263;SDS011;26998;48.714;9.414;2024-03-07T05:57:17;75.78;;;48.03;;
41263;SDS011;26998;48.714;9.414;2024-03-07T05:59:43;75.93;;;48.30;;
41263;SDS011;26998;48.714;9.414;2024-03-07T06:02:12;72.65;;;48.25;;
41263;SDS011;26998;48.714;9.414;2024-03-07T06:04:42;74.10;;;46.90;;
41263;SDS011;26998;48.714;9.414;2024-03-07T06:07:09;73.20;;;46.78;;
41263;SDS011;26998;48.714;9.414;2024-03-07T06:09:37;72.65;;;46.15;;
41263;SDS011;26998;48.714;9.414;2024-03-07T06:12:06;73.35;;;46.80;;
41263;SDS011;26998;48.714;9.414;2024-03-07T06:14:48;68.00;;;45.15;;
41263;SDS011;26998;48.714;9.414;2024-03-07T06:17:15;60.92;;;40.67;;
41263;SDS011;26998;48.714;9.414;2024-03-07T06:19:45;61.50;;;40.53;;
41263;SDS011;26998;48.714;9.414;2024-03-07T06:22:12;61.00;;;40.30;;
41263;SDS011;26998;48.714;9.414;2024-03-07T06:24:38;64.38;;;42.80;;
41263;SDS011;26998;48.714;9.414;2024-03-07T06:27:06;65.30;;;43.10;;
41263;SDS011;26998;48.714;9.414;2024-03-07T06:29:42;66.38;;;42.28;;
41263;SDS011;26998;48.714;9.414;2024-03-07T06:32:08;64.05;;;41.75;;
41263;SDS011;26998;48.714;9.414;2024-03-07T06:34:37;61.95;;;40.53;;
41263;SDS011;26998;48.714;9.414;2024-03-07T06:37:04;61.17;;;41.40;;
41263;SDS011;26998;48.714;9.414;2024-03-07T06:39:31;59.67;;;39.05;;
41263;SDS011;26998;48.714;9.414;2024-03-07T06:41:58;59.40;;;38.70;;
41263;SDS011;26998;48.714;9.414;2024-03-07T06:44:25;57.75;;;39.03;;
41263;SDS011;26998;48.714;9.414;2024-03-07T06:46:53;57.67;;;38.45;;
41263;SDS011;26998;48.714;9.414;2024-03-07T06:49:19;59.53;;;40.50;;
41263;SDS011;26998;48.714;9.414;2024-03-07T06:51:47;59.05;;;39.05;;
41263;SDS011;26998;48.714;9.414;2024-03-07T06:54:13;59.50;;;39.58;;
41263;SDS011;26998;48.714;9.414;2024-03-07T06:56:40;66.18;;;39.38;;
41263;SDS011;26998;48.714;9.414;2024-03-07T06:59:10;58.88;;;39.17;;
41263;SDS011;26998;48.714;9.414;2024-03-07T07:01:37;62.50;;;39.35;;
41263;SDS011;26998;48.714;9.414;2024-03-07T07:04:04;62.00;;;38.13;;
41263;SDS011;26998;48.714;9.414;2024-03-07T07:06:30;55.60;;;36.78;;
41263;SDS011;26998;48.714;9.414;2024-03-07T07:08:58;56.72;;;36.58;;
41263;SDS011;26998;48.714;9.414;2024-03-07T07:11:25;55.88;;;37.22;;
41263;SDS011;26998;48.714;9.414;2024-03-07T07:13:58;51.72;;;35.08;;
41263;SDS011;26998;48.714;9.414;2024-03-07T07:16:26;50.85;;;33.55;;
41263;SDS011;26998;48.714;9.414;2024-03-07T07:18:53;57.03;;;37.25;;
41263;SDS011;26998;48.714;9.414;2024-03-07T07:21:21;55.78;;;37.55;;
41263;SDS011;26998;48.714;9.414;2024-03-07T07:23:48;54.47;;;36.05;;
41263;SDS011;26998;48.714;9.414;2024-03-07T07:26:15;55.85;;;35.90;;
41263;SDS011;26998;48.714;9.414;2024-03-07T07:28:41;55.10;;;35.55;;
41263;SDS011;26998;48.714;9.414;2024-03-07T07:31:08;45.90;;;32.28;;
41263;SDS011;26998;48.714;9.414;2024-03-07T07:33:35;53.63;;;36.55;;
41263;SDS011;26998;48.714;9.414;2024-03-07T07:36:05;47.22;;;34.05;;
41263;SDS011;26998;48.714;9.414;2024-03-07T07:38:32;50.13;;;34.80;;
41263;SDS011;26998;48.714;9.414;2024-03-07T07:40:58;48.20;;;33.33;;
41263;SDS011;26998;48.714;9.414;2024-03-07T07:43:25;47.13;;;33.35;;
41263;SDS011;26998;48.714;9.414;2024-03-07T07:46:07;50.53;;;34.60;;
41263;SDS011;26998;48.714;9.414;2024-03-07T07:48:34;47.28;;;33.95;;
41263;SDS011;26998;48.714;9.414;2024-03-07T07:51:00;45.55;;;32.97;;
41263;SDS011;26998;48.714;9.414;2024-03-07T07:53:27;54.25;;;34.65;;
41263;SDS011;26998;48.714;9.414;2024-03-07T07:55:54;49.08;;;33.20;;
41263;SDS011;26998;48.714;9.414;2024-03-07T07:58:21;49.55;;;33.67;;
41263;SDS011;26998;48.714;9.414;2024-03-07T08:00:47;48.83;;;32.80;;
41263;SDS011;26998;48.714;9.414;2024-03-07T08:03:15;45.45;;;32.30;;
41263;SDS011;26998;48.714;9.414;2024-03-07T08:05:44;47.78;;;33.60;;
41263;SDS011;26998;48.714;9.414;2024-03-07T08:08:14;44.25;;;31.75;;
41263;SDS011;26998;48.714;9.414;2024-03-07T08:10:43;44.25;;;31.45;;
41263;SDS011;26998;48.714;9.414;2024-03-07T08:13:13;40.90;;;29.95;;
41263;SDS011;26998;48.714;9.414;2024-03-07T08:15:40;40.38;;;28.88;;
41263;SDS011;26998;48.714;9.414;2024-03-07T08:18:08;42.20;;;30.38;;
41263;SDS011;26998;48.714;9.414;2024-03-07T08:20:39;43.75;;;32.05;;
41263;SDS011;26998;48.714;9.414;2024-03-07T08:23:07;42.95;;;30.20;;
41263;SDS011;26998;48.714;9.414;2024-03-07T08:25:35;46.90;;;31.08;;
41263;SDS011;26998;48.714;9.414;2024-03-07T08:28:02;41.30;;;29.85;;
41263;SDS011;26998;48.714;9.414;2024-03-07T08:30:29;42.17;;;30.17;;
41263;SDS011;26998;48.714;9.414;2024-03-07T08:32:57;41.72;;;31.58;;
41263;SDS011;26998;48.714;9.414;2024-03-07T08:35:25;49.78;;;33.25;;
41263;SDS011;26998;48.714;9.414;2024-03-07T08:37:54;44.95;;;31.38;;
41263;SDS011;26998;48.714;9.414;2024-03-07T08:40:26;43.17;;;31.13;;
41263;SDS011;26998;48.714;9.414;2024-03-07T08:42:58;46.60;;;32.85;;
41263;SDS011;26998;48.714;9.414;2024-03-07T08:45:25;43.35;;;31.73;;
41263;SDS011;26998;48.714;9.414;2024-03-07T08:47:54;47.60;;;32.80;;
41263;SDS011;26998;48.714;9.414;2024-03-07T08:50:23;46.47;;;33.50;;
41263;SDS011;26998;48.714;9.414;2024-03-07T08:52:51;49.78;;;34.50;;
41263;SDS011;26998;48.714;9.414;2024-03-07T08:55:20;48.40;;;33.80;;
41263;SDS011;26998;48.714;9.414;2024-03-07T08:57:47;49.25;;;34.50;;
41263;SDS011;26998;48.714;9.414;2024-03-07T09:00:16;48.47;;;34.47;;
41263;SDS011;26998;48.714;9.414;2024-03-07T09:02:50;45.97;;;34.00;;
41263;SDS011;26998;48.714;9.414;2024-03-07T09:05:23;49.10;;;33.60;;
41263;SDS011;26998;48.714;9.414;2024-03-07T09:07:50;53.83;;;35.72;;
41263;SDS011;26998;48.714;9.414;2024-03-07T09:10:18;48.78;;;34.80;;
41263;SDS011;26998;48.714;9.414;2024-03-07T09:12:46;50.10;;;34.72;;
41263;SDS011;26998;48.714;9.414;2024-03-07T09:15:16;52.00;;;35.58;;
41263;SDS011;26998;48.714;9.414;2024-03-07T09:17:44;49.63;;;34.50;;
41263;SDS011;26998;48.714;9.414;2024-03-07T09:20:12;53.67;;;35.97;;
41263;SDS011;26998;48.714;9.414;2024-03-07T09:22:42;48.78;;;34.30;;
41263;SDS011;26998;48.714;9.414;2024-03-07T09:25:09;50.90;;;34.88;;
41263;SDS011;26998;48.714;9.414;2024-03-07T09:27:36;53.35;;;35.90;;
41263;SDS011;26998;48.714;9.414;2024-03-07T09:30:04;51.30;;;33.92;;
41263;SDS011;26998;48.714;9.414;2024-03-07T09:32:34;51.55;;;35.08;;
41263;SDS011;26998;48.714;9.414;2024-03-07T09:35:01;51.05;;;35.10;;
41263;SDS011;26998;48.714;9.414;2024-03-07T09:37:28;52.55;;;35.85;;
41263;SDS011;26998;48.714;9.414;2024-03-07T09:39:56;50.40;;;33.28;;
41263;SDS011;26998;48.714;9.414;2024-03-07T09:42:22;50.92;;;35.47;;
41263;SDS011;26998;48.714;9.414;2024-03-07T09:44:52;50.88;;;35.00;;
41263;SDS011;26998;48.714;9.414;2024-03-07T09:47:19;52.70;;;34.40;;
41263;SDS011;26998;48.714;9.414;2024-03-07T09:49:46;47.85;;;34.47;;
41263;SDS011;26998;48.714;9.414;2024-03-07T09:52:13;47.85;;;33.10;;
41263;SDS011;26998;48.714;9.414;2024-03-07T09:54:41;47.28;;;33.72;;
41263;SDS011;26998;48.714;9.414;2024-03-07T09:57:08;48.53;;;34.42;;
41263;SDS011;26998;48.714;9.414;2024-03-07T09:59:37;42.30;;;31.05;;
41263;SDS011;26998;48.714;9.414;2024-03-07T10:02:06;46.70;;;33.20;;
41263;SDS011;26998;48.714;9.414;2024-03-07T10:04:37;45.50;;;32.25;;
41263;SDS011;26998;48.714;9.414;2024-03-07T10:07:10;44.97;;;32.72;;
41263;SDS011;26998;48.714;9.414;2024-03-07T10:09:40;43.80;;;32.03;;
41263;SDS011;26998;48.714;9.414;2024-03-07T10:12:08;43.38;;;30.75;;
41263;SDS011;26998;48.714;9.414;2024-03-07T10:14:48;45.00;;;31.67;;
41263;SDS011;26998;48.714;9.414;2024-03-07T10:17:17;42.60;;;31.55;;
41263;SDS011;26998;48.714;9.414;2024-03-07T10:19:47;43.65;;;30.92;;
41263;SDS011;26998;48.714;9.414;2024-03-07T10:22:17;46.30;;;31.20;;
41263;SDS011;26998;48.714;9.414;2024-03-07T10:24:51;45.40;;;31.67;;
41263;SDS011;26998;48.714;9.414;2024-03-07T10:27:27;46.60;;;32.22;;
41263;SDS011;26998;48.714;9.414;2024-03-07T10:29:55;46.92;;;32.17;;
41263;SDS011;26998;48.714;9.414;2024-03-07T10:32:22;44.30;;;30.23;;
41263;SDS011;26998;48.714;9.414;2024-03-07T10:34:52;45.22;;;31.58;;
41263;SDS011;26998;48.714;9.414;2024-03-07T10:37:21;45.53;;;31.55;;
41263;SDS011;26998;48.714;9.414;2024-03-07T10:39:48;45.63;;;32.07;;
41263;SDS011;26998;48.714;9.414;2024-03-07T10:42:18;45.78;;;32.75;;
41263;SDS011;26998;48.714;9.414;2024-03-07T10:44:48;50.00;;;32.85;;
41263;SDS011;26998;48.714;9.414;2024-03-07T10:47:16;46.80;;;32.05;;
41263;SDS011;26998;48.714;9.414;2024-03-07T10:52:35;45.17;;;31.73;;
41263;SDS011;26998;48.714;9.414;2024-03-07T11:00:06;45.92;;;31.63;;
41263;SDS011;26998;48.714;9.414;2024-03-07T11:02:54;47.15;;;32.20;;
41263;SDS011;26998;48.714;9.414;2024-03-07T11:05:24;48.72;;;33.15;;
41263;SDS011;26998;48.714;9.414;2024-03-07T11:07:52;42.30;;;31.23;;
41263;SDS011;26998;48.714;9.414;2024-03-07T11:10:20;44.55;;;31.95;;
41263;SDS011;26998;48.714;9.414;2024-03-07T11:12:48;45.03;;;32.08;;
41263;SDS011;26998;48.714;9.414;2024-03-07T11:15:17;48.23;;;32.07;;
41263;SDS011;26998;48.714;9.414;2024-03-07T11:17:49;45.13;;;32.17;;
41263;SDS011;26998;48.714;9.414;2024-03-07T11:20:24;49.00;;;33.57;;
41263;SDS011;26998;48.714;9.414;2024-03-07T11:23:00;49.70;;;33.13;;
41263;SDS011;26998;48.714;9.414;2024-03-07T11:25:28;46.42;;;33.13;;
41263;SDS011;26998;48.714;9.414;2024-03-07T11:27:57;47.90;;;33.47;;
41263;SDS011;26998;48.714;9.414;2024-03-07T11:30:25;47.55;;;34.13;;
41263;SDS011;26998;48.714;9.414;2024-03-07T11:32:53;47.30;;;33.05;;
41263;SDS011;26998;48.714;9.414;2024-03-07T11:35:22;49.13;;;33.78;;
41263;SDS011;26998;48.714;9.414;2024-03-07T11:38:06;52.85;;;35.30;;
41263;SDS011;26998;48.714;9.414;2024-03-07T11:43:01;50.33;;;34.83;;
41263;SDS011;26998;48.714;9.414;2024-03-07T11:45:31;47.13;;;32.60;;
41263;SDS011;26998;48.714;9.414;2024-03-07T11:48:11;49.00;;;33.95;;
41263;SDS011;26998;48.714;9.414;2024-03-07T11:50:38;49.63;;;33.40;;
41263;SDS011;26998;48.714;9.414;2024-03-07T11:53:07;49.10;;;34.28;;
41263;SDS011;26998;48.714;9.414;2024-03-07T11:55:38;50.70;;;34.90;;
41263;SDS011;26998;48.714;9.414;2024-03-07T11:58:13;47.95;;;33.30;;
41263;SDS011;26998;48.714;9.414;2024-03-07T12:00:43;53.85;;;36.08;;
41263;SDS011;26998;48.714;9.414;2024-03-07T12:03:14;53.67;;;36.17;;
41263;SDS011;26998;48.714;9.414;2024-03-07T12:05:48;49.55;;;33.70;;
41263;SDS011;26998;48.714;9.414;2024-03-07T12:08:15;48.72;;;35.75;;
41263;SDS011;26998;48.714;9.414;2024-03-07T12:10:42;48.60;;;34.45;;
41263;SDS011;26998;48.714;9.414;2024-03-07T12:13:14;49.88;;;34.38;;
41263;SDS011;26998;48.714;9.414;2024-03-07T12:15:42;52.47;;;37.75;;
41263;SDS011;26998;48.714;9.414;2024-03-07T12:18:10;48.03;;;33.28;;
41263;SDS011;26998;48.714;9.414;2024-03-07T12:20:41;48.15;;;35.50;;
41263;SDS011;26998;48.714;9.414;2024-03-07T12:23:08;45.53;;;32.35;;
41263;SDS011;26998;48.714;9.414;2024-03-07T12:25:35;45.67;;;32.00;;
41263;SDS011;26998;48.714;9.414;2024-03-07T12:28:03;46.05;;;32.75;;
41263;SDS011;26998;48.714;9.414;2024-03-07T12:30:50;43.78;;;32.53;;
41263;SDS011;26998;48.714;9.414;2024-03-07T12:33:20;46.10;;;33.35;;
41263;SDS011;26998;48.714;9.414;2024-03-07T12:35:50;47.25;;;34.05;;
41263;SDS011;26998;48.714;9.414;2024-03-07T12:38:19;44.88;;;33.15;;
41263;SDS011;26998;48.714;9.414;2024-03-07T12:40:46;46.80;;;32.83;;
41263;SDS011;26998;48.714;9.414;2024-03-07T12:43:17;42.40;;;31.80;;
41263;SDS011;26998;48.714;9.414;2024-03-07T12:45:51;50.65;;;33.30;;
41263;SDS011;26998;48.714;9.414;2024-03-07T12:48:18;43.38;;;31.92;;
41263;SDS011;26998;48.714;9.414;2024-03-07T12:50:48;44.28;;;32.97;;
41263;SDS011;26998;48.714;9.414;2024-03-07T12:53:21;44.08;;;32.28;;
41263;SDS011;26998;48.714;9.414;2024-03-07T12:55:50;44.55;;;32.33;;
41263;SDS011;26998;48.714;9.414;2024-03-07T12:58:18;45.13;;;32.35;;
41263;SDS011;26998;48.714;9.414;2024-03-07T13:00:52;39.67;;;29.92;;
41263;SDS011;26998;48.714;9.414;2024-03-07T13:03:23;39.80;;;30.48;;
41263;SDS011;26998;48.714;9.414;2024-03-07T13:05:57;39.97;;;30.00;;
41263;SDS011;26998;48.714;9.414;2024-03-07T13:08:28;42.78;;;30.85;;
41263;SDS011;26998;48.714;9.414;2024-03-07T13:10:58;40.90;;;29.08;;
41263;SDS011;26998;48.714;9.414;2024-03-07T13:13:28;39.33;;;29.42;;
41263;SDS011;26998;48.714;9.414;2024-03-07T13:15:54;40.00;;;29.65;;
41263;SDS011;26998;48.714;9.414;2024-03-07T13:18:22;37.95;;;30.05;;
41263;SDS011;26998;48.714;9.414;2024-03-07T13:20:50;38.47;;;29.35;;
41263;SDS011;26998;48.714;9.414;2024-03-07T13:23:16;38.60;;;29.00;;
41263;SDS011;26998;48.714;9.414;2024-03-07T13:25:43;40.27;;;29.43;;
41263;SDS011;26998;48.714;9.414;2024-03-07T13:28:11;38.30;;;29.73;;
41263;SDS011;26998;48.714;9.414;2024-03-07T13:30:43;38.30;;;29.70;;
41263;SDS011;26998;48.714;9.414;2024-03-07T13:33:10;39.05;;;31.00;;
41263;SDS011;26998;48.714;9.414;2024-03-07T13:35:38;39.50;;;30.42;;
41263;SDS011;26998;48.714;9.414;2024-03-07T13:38:05;40.97;;;30.80;;
41263;SDS011;26998;48.714;9.414;2024-03-07T13:40:33;43.40;;;31.63;;
41263;SDS011;26998;48.714;9.414;2024-03-07T13:43:05;43.25;;;31.83;;
41263;SDS011;26998;48.714;9.414;2024-03-07T13:45:33;43.35;;;31.60;;
41263;SDS011;26998;48.714;9.414;2024-03-07T13:48:06;41.30;;;32.07;;
41263;SDS011;26998;48.714;9.414;2024-03-07T13:50:34;43.22;;;31.52;;
41263;SDS011;26998;48.714;9.414;2024-03-07T13:53:21;43.10;;;31.42;;
41263;SDS011;26998;48.714;9.414;2024-03-07T13:55:51;45.42;;;31.02;;
41263;SDS011;26998;48.714;9.414;2024-03-07T14:06:24;45.38;;;31.52;;
41263;SDS011;26998;48.714;9.414;2024-03-07T14:12:09;41.30;;;30.20;;
41263;SDS011;26998;48.714;9.414;2024-03-07T14:17:51;39.42;;;29.63;;
41263;SDS011;26998;48.714;9.414;2024-03-07T14:23:30;40.50;;;30.48;;
41263;SDS011;26998;48.714;9.414;2024-03-07T14:32:04;38.55;;;28.77;;
41263;SDS011;26998;48.714;9.414;2024-03-07T14:37:02;40.53;;;28.20;;
41263;SDS011;26998;48.714;9.414;2024-03-07T14:39:36;42.33;;;28.70;;
41263;SDS011;26998;48.714;9.414;2024-03-07T14:42:06;39.15;;;28.50;;
41263;SDS011;26998;48.714;9.414;2024-03-07T14:44:36;36.50;;;27.27;;
41263;SDS011;26998;48.714;9.414;2024-03-07T14:47:06;41.63;;;29.10;;
41263;SDS011;26998;48.714;9.414;2024-03-07T14:49:34;38.33;;;27.77;;
41263;SDS011;26998;48.714;9.414;2024-03-07T14:52:02;42.85;;;29.10;;
41263;SDS011;26998;48.714;9.414;2024-03-07T14:54:29;38.33;;;27.90;;
41263;SDS011;26998;48.714;9.414;2024-03-07T14:56:57;38.55;;;27.63;;
41263;SDS011;26998;48.714;9.414;2024-03-07T14:59:23;37.70;;;27.13;;
41263;SDS011;26998;48.714;9.414;2024-03-07T15:01:50;39.22;;;27.48;;
41263;SDS011;26998;48.714;9.414;2024-03-07T15:04:17;37.08;;;27.48;;
41263;SDS011;26998;48.714;9.414;2024-03-07T15:06:44;35.10;;;27.17;;